Ripley, Canada
Current Conditions -  °F | °C
As of 1:00 AM on Sunday 26 Oct 2014 (Local Time) from CYVV Reporting Station
Rain Showers Rain Showers  
Wind Chill: 11°   Ceiling: 3600
Heat Index: 11°   Visibility: 15mi
Dew Point:   Wind: 15mph
Humidity: 62%   Direction: 290°WNW
Pressure: 29.62"   Gusts: 28mph
Location:  44.07°N, 81.58°W
Report Text: CYVV 260500Z 29013G24KT 15SM -SHRA OVC036 11/04 A2962 RMK SC8SLP035
Loading
Personal Weather Stations






























Interactive Weather Map
Tropical Storm Tracking
New forecast layout! Learn more

10-Day Weather Forecast

Advertisements
Track Severe Weather on mobile